createdAt,value
2023-04-15T00:02:26.507Z,99904.25
2023-04-15T00:04:54.329Z,99887.28
2023-04-15T00:07:22.090Z,99893.88
2023-04-15T00:09:49.748Z,99891.41
2023-04-15T00:12:17.465Z,99891.13
2023-04-15T00:14:45.100Z,99891.91
2023-04-15T00:17:14.237Z,99880.16
2023-04-15T00:19:42.554Z,99885.41
2023-04-15T00:22:10.245Z,99887.56
2023-04-15T00:24:38.019Z,99882.41
2023-04-15T00:27:05.798Z,99885.13
2023-04-15T00:29:33.640Z,99888.66
2023-04-15T00:32:01.386Z,99883.72
2023-04-15T00:34:30.427Z,99885.09
2023-04-15T00:36:58.316Z,99886.47
2023-04-15T00:39:25.962Z,99888.09
2023-04-15T00:41:54.348Z,99882.94
2023-04-15T00:44:22.005Z,99888.09
2023-04-15T00:46:51.939Z,99885.09
2023-04-15T00:49:20.043Z,99884.56
2023-04-15T00:51:49.068Z,99878.28
2023-04-15T00:54:17.209Z,99877.50
2023-04-15T00:56:44.984Z,99877.25
2023-04-15T00:59:13.050Z,99883.00
2023-04-15T01:01:41.726Z,99881.63
2023-04-15T01:04:10.683Z,99874.78
2023-04-15T01:06:38.380Z,99872.06
2023-04-15T01:09:07.427Z,99859.44
2023-04-15T01:11:35.823Z,99871.22
2023-04-15T01:14:04.242Z,99873.16
2023-04-15T01:16:32.567Z,99869.88
2023-04-15T01:19:00.715Z,99866.59
2023-04-15T01:21:28.419Z,99860.88
2023-04-15T01:23:58.326Z,99864.97
2023-04-15T01:26:27.490Z,99854.28
2023-04-15T01:28:56.282Z,99856.22
2023-04-15T01:31:23.944Z,99861.44
2023-04-15T01:33:51.955Z,99865.78
2023-04-15T01:36:19.660Z,99856.78
2023-04-15T01:38:47.604Z,99859.81
2023-04-15T01:41:15.596Z,99857.34
2023-04-15T01:43:44.638Z,99854.03
2023-04-15T01:46:12.732Z,99860.06
2023-04-15T01:48:40.457Z,99860.59
2023-04-15T01:51:08.232Z,99864.97
2023-04-15T01:53:35.889Z,99862.25
2023-04-15T01:56:03.707Z,99851.88
2023-04-15T01:58:31.449Z,99851.59
2023-04-15T02:01:00.653Z,99849.94
2023-04-15T02:03:29.150Z,99851.84
2023-04-15T02:05:57.560Z,99857.28
2023-04-15T02:08:25.250Z,99846.94
2023-04-15T02:10:53.217Z,99849.44
2023-04-15T02:13:20.863Z,99850.78
2023-04-15T02:15:49.537Z,99849.44
2023-04-15T02:18:18.545Z,99842.06
2023-04-15T02:20:47.051Z,99849.97
2023-04-15T02:23:15.054Z,99846.69
2023-04-15T02:25:42.758Z,99851.56
2023-04-15T02:28:21.355Z,99849.94
2023-04-15T02:30:50.881Z,99849.69
2023-04-15T02:33:20.322Z,99844.22
2023-04-15T02:35:48.003Z,99845.31
2023-04-15T02:38:17.838Z,99843.13
2023-04-15T02:40:46.131Z,99842.00
2023-04-15T02:43:13.740Z,99849.69
2023-04-15T02:45:43.442Z,99853.25
2023-04-15T02:48:11.494Z,99848.88
2023-04-15T02:50:40.802Z,99848.88
2023-04-15T02:53:08.556Z,99857.88
2023-04-15T02:55:36.359Z,99857.34
2023-04-15T02:58:04.204Z,99865.78
2023-04-15T03:00:32.125Z,99863.06
2023-04-15T03:03:02.249Z,99852.13
2023-04-15T03:05:30.558Z,99853.50
2023-04-15T03:08:01.009Z,99862.75
2023-04-15T03:10:28.747Z,99858.66
2023-04-15T03:12:56.476Z,99862.22
2023-04-15T03:15:24.344Z,99869.59
2023-04-15T03:17:52.066Z,99865.50
2023-04-15T03:20:20.355Z,99859.50
2023-04-15T03:22:48.066Z,99863.03
2023-04-15T03:25:17.267Z,99867.38
2023-04-15T03:27:44.927Z,99858.38
2023-04-15T03:30:13.390Z,99857.56
2023-04-15T03:32:41.116Z,99866.28
2023-04-15T03:35:09.607Z,99860.53
2023-04-15T03:37:37.317Z,99863.81
2023-04-15T03:40:05.493Z,99863.81
2023-04-15T03:42:34.501Z,99861.06
2023-04-15T03:45:02.145Z,99861.34
2023-04-15T03:47:29.852Z,99856.94
2023-04-15T03:49:57.606Z,99859.41
2023-04-15T03:52:25.581Z,99860.75
2023-04-15T03:54:53.192Z,99867.06
2023-04-15T03:57:21.063Z,99870.59
2023-04-15T03:59:50.013Z,99868.16
2023-04-15T04:02:18.081Z,99866.53
2023-04-15T04:04:45.830Z,99872.81
2023-04-15T04:07:16.937Z,99874.16
2023-04-15T04:09:45.707Z,99870.06
2023-04-15T04:12:14.812Z,99870.59
2023-04-15T04:14:42.433Z,99869.28
2023-04-15T04:17:11.698Z,99866.25
2023-04-15T04:19:39.406Z,99874.44
2023-04-15T04:22:07.344Z,99876.38
2023-04-15T04:24:35.036Z,99869.53
2023-04-15T04:27:02.998Z,99871.69
2023-04-15T04:29:30.713Z,99872.81
2023-04-15T04:31:58.382Z,99867.06
2023-04-15T04:34:27.452Z,99873.63
2023-04-15T04:36:55.119Z,99876.63
2023-04-15T04:39:22.834Z,99884.25
2023-04-15T04:41:52.123Z,99890.00
2023-04-15T04:44:19.816Z,99881.00
2023-04-15T04:46:47.515Z,99880.16
2023-04-15T04:49:15.425Z,99886.97
2023-04-15T04:51:44.716Z,99879.59
2023-04-15T04:54:12.435Z,99892.13
2023-04-15T04:56:40.333Z,99892.66
2023-04-15T04:59:08.080Z,99886.41
2023-04-15T05:01:35.854Z,99889.94
2023-04-15T05:04:05.177Z,99901.41
2023-04-15T05:06:33.147Z,99904.44
2023-04-15T05:09:02.784Z,99906.88
2023-04-15T05:11:30.936Z,99905.25
2023-04-15T05:13:59.718Z,99906.59
2023-04-15T05:16:27.391Z,99912.91
2023-04-15T05:18:55.118Z,99909.84
2023-04-15T05:21:22.906Z,99907.13
2023-04-15T05:23:50.745Z,99910.97
2023-04-15T05:26:19.795Z,99907.13
2023-04-15T05:28:47.860Z,99915.84
2023-04-15T05:31:15.532Z,99914.75
2023-04-15T05:33:43.490Z,99915.06
2023-04-15T05:36:11.542Z,99925.41
2023-04-15T05:38:39.185Z,99929.47
2023-04-15T05:41:06.917Z,99918.53
2023-04-15T05:43:36.046Z,99916.91
2023-04-15T05:46:03.921Z,99921.25
2023-04-15T05:48:31.765Z,99910.31
2023-04-15T05:50:59.565Z,99910.31
2023-04-15T05:53:27.205Z,99916.84
2023-04-15T05:55:54.935Z,99909.16
2023-04-15T05:58:22.586Z,99916.78
2023-04-15T06:00:51.865Z,99914.31
2023-04-15T06:03:19.680Z,99921.66
2023-04-15T06:05:47.439Z,99920.88
2023-04-15T06:08:15.032Z,99921.91
2023-04-15T06:10:42.751Z,99921.66
2023-04-15T06:13:10.378Z,99912.88
2023-04-15T06:15:37.977Z,99915.59
2023-04-15T06:18:06.943Z,99913.97
2023-04-15T06:20:34.669Z,99917.81
2023-04-15T06:23:02.297Z,99921.88
2023-04-15T06:25:29.967Z,99914.75
2023-04-15T06:27:57.636Z,99925.38
2023-04-15T06:30:25.307Z,99918.53
2023-04-15T06:32:53.245Z,99920.44
2023-04-15T06:35:23.089Z,99925.31
2023-04-15T06:37:51.570Z,99929.69
2023-04-15T06:40:19.254Z,99931.63
2023-04-15T06:42:46.937Z,99931.03
2023-04-15T06:45:14.627Z,99937.31
2023-04-15T06:47:42.385Z,99944.16
2023-04-15T06:50:11.488Z,99952.06
2023-04-15T06:52:40.874Z,99950.13
2023-04-15T06:55:09.980Z,99951.16
2023-04-15T06:57:37.618Z,99951.44
2023-04-15T07:00:05.919Z,99959.31
2023-04-15T07:02:33.686Z,99963.75
2023-04-15T07:05:01.701Z,99966.13
2023-04-15T07:07:29.408Z,99970.25
2023-04-15T07:09:58.522Z,99973.78
2023-04-15T07:12:27.863Z,99987.69
2023-04-15T07:14:55.802Z,99982.50
2023-04-15T07:17:23.534Z,99987.09
2023-04-15T07:19:51.402Z,99994.25
2023-04-15T07:22:19.064Z,99992.88
2023-04-15T07:24:47.215Z,99989.84
2023-04-15T07:27:16.342Z,99992.03
2023-04-15T07:29:44.022Z,99987.97
2023-04-15T07:32:11.769Z,99987.09
2023-04-15T07:34:39.448Z,99996.38
2023-04-15T07:37:07.298Z,100002.38
2023-04-15T07:39:34.992Z,99994.19
2023-04-15T07:42:02.785Z,100000.25
2023-04-15T07:44:32.283Z,99998.94
2023-04-15T07:46:59.928Z,99994.31
2023-04-15T07:49:27.577Z,100003.63
2023-04-15T07:51:56.509Z,100000.59
2023-04-15T07:54:24.176Z,99998.16
2023-04-15T07:56:51.758Z,100000.38
2023-04-15T07:59:19.432Z,100000.38
2023-04-15T08:01:49.029Z,100010.72
2023-04-15T08:04:17.124Z,100001.94
2023-04-15T08:06:44.922Z,100010.22
2023-04-15T08:09:12.694Z,100010.47
2023-04-15T08:11:40.681Z,100015.72
2023-04-15T08:14:08.398Z,100012.63
2023-04-15T08:16:37.006Z,100016.78
2023-04-15T08:19:06.166Z,100019.22
2023-04-15T08:21:33.920Z,100016.47
2023-04-15T08:24:01.729Z,100027.16
2023-04-15T08:26:29.517Z,100024.66
2023-04-15T08:28:57.488Z,100029.84
2023-04-15T08:31:27.849Z,100014.19
2023-04-15T08:33:56.902Z,100027.88
2023-04-15T08:36:26.991Z,100022.34
2023-04-15T08:38:54.641Z,100027.81
2023-04-15T08:41:24.408Z,100026.72
2023-04-15T08:43:58.405Z,100034.66
2023-04-15T08:46:26.640Z,100031.41
2023-04-15T08:48:58.244Z,100031.63
2023-04-15T08:51:28.153Z,100029.47
2023-04-15T08:53:56.265Z,100042.34
2023-04-15T08:56:26.799Z,100031.63
2023-04-15T08:58:54.386Z,100037.91
2023-04-15T09:01:22.222Z,100031.88
2023-04-15T09:03:51.007Z,100036.28
2023-04-15T09:06:19.199Z,100033.25
2023-04-15T09:08:48.316Z,100026.91
2023-04-15T09:11:19.424Z,100038.63
2023-04-15T09:13:48.193Z,100038.91
2023-04-15T09:16:16.042Z,100043.00
2023-04-15T09:18:44.057Z,100035.31
2023-04-15T09:21:14.130Z,100047.84
2023-04-15T09:23:43.281Z,100050.88
2023-04-15T09:26:12.374Z,100049.25
2023-04-15T09:28:43.883Z,100051.69
2023-04-15T09:31:11.964Z,100057.09
2023-04-15T09:33:57.090Z,100058.53
2023-04-15T09:36:25.099Z,100060.94
2023-04-15T09:38:57.196Z,100071.69
2023-04-15T09:41:26.356Z,100069.28
2023-04-15T09:43:54.146Z,100064.91
2023-04-15T09:46:21.831Z,100074.44
2023-04-15T09:49:09.096Z,100068.97
2023-04-15T09:51:37.688Z,100079.97
2023-04-15T09:54:06.025Z,100070.47
2023-04-15T09:56:37.710Z,100076.72
2023-04-15T09:59:06.455Z,100087.91
2023-04-15T10:01:34.498Z,100088.25
2023-04-15T10:04:05.313Z,100084.88
2023-04-15T10:06:33.730Z,100094.19
2023-04-15T10:09:02.137Z,100094.41
2023-04-15T10:11:31.806Z,100094.69
2023-04-15T10:14:01.963Z,100087.00
2023-04-15T10:16:32.760Z,100093.63
2023-04-15T10:19:02.370Z,100092.81
2023-04-15T10:21:32.120Z,100097.72
2023-04-15T10:24:00.279Z,100098.25
2023-04-15T10:26:29.270Z,100091.84
2023-04-15T10:28:58.420Z,100103.13
2023-04-15T10:31:29.577Z,100098.78
2023-04-15T10:33:59.045Z,100104.78
2023-04-15T10:36:27.443Z,100096.81
2023-04-15T10:38:55.117Z,100092.38
2023-04-15T10:41:24.139Z,100099.22
2023-04-15T10:43:54.238Z,100098.88
2023-04-15T10:46:35.262Z,100100.78
2023-04-15T10:49:08.762Z,100096.13
2023-04-15T10:51:41.552Z,100101.63
2023-04-15T10:54:11.236Z,100107.38
2023-04-15T10:56:38.922Z,100106.00
2023-04-15T10:59:07.474Z,100116.44
2023-04-15T11:01:56.472Z,100109.41
2023-04-15T11:04:57.517Z,100120.34
2023-04-15T11:07:38.005Z,100111.34
2023-04-15T11:10:55.144Z,100122.19
2023-04-15T11:13:31.631Z,100115.59
2023-04-15T11:16:03.518Z,100124.91
2023-04-15T11:18:33.566Z,100127.38
2023-04-15T11:21:05.332Z,100126.03
2023-04-15T11:23:35.740Z,100133.66
2023-04-15T11:26:09.161Z,100136.41
2023-04-15T11:28:38.946Z,100138.63
2023-04-15T11:31:08.772Z,100139.19
2023-04-15T11:33:36.410Z,100144.66
2023-04-15T11:36:05.897Z,100147.94
2023-04-15T11:38:35.653Z,100145.47
2023-04-15T11:41:03.472Z,100148.47
2023-04-15T11:43:35.272Z,100147.94
2023-04-15T11:46:04.206Z,100161.63
2023-04-15T11:48:34.931Z,100157.25
2023-04-15T11:51:04.111Z,100165.72
2023-04-15T11:53:42.150Z,100163.00
2023-04-15T11:56:11.597Z,100166.81
2023-04-15T11:58:40.034Z,100168.50
2023-04-15T12:01:08.229Z,100172.28
2023-04-15T12:03:39.935Z,100176.63
2023-04-15T12:06:27.697Z,100177.16
2023-04-15T12:09:03.087Z,100183.97
2023-04-15T12:11:33.604Z,100172.72
2023-04-15T12:14:07.758Z,100173.72
2023-04-15T12:16:45.749Z,100175.38
2023-04-15T12:19:19.378Z,100177.31
2023-04-15T12:21:48.898Z,100173.78
2023-04-15T12:24:23.054Z,100178.69
2023-04-15T12:26:52.876Z,100180.56
2023-04-15T12:29:22.185Z,100181.41
2023-04-15T12:31:51.728Z,100191.25
2023-04-15T12:34:20.984Z,100186.88
2023-04-15T12:36:48.684Z,100195.09
2023-04-15T12:39:17.764Z,100192.06
2023-04-15T12:41:45.476Z,100198.06
2023-04-15T12:44:13.293Z,100193.16
2023-04-15T12:46:41.487Z,100202.75
2023-04-15T12:49:09.415Z,100203.03
2023-04-15T12:51:37.172Z,100207.69
2023-04-15T12:54:05.586Z,100213.19
2023-04-15T12:56:35.034Z,100210.97
2023-04-15T12:59:02.699Z,100219.19
2023-04-15T13:01:30.478Z,100216.44
2023-04-15T13:03:58.425Z,100217.56
2023-04-15T13:06:26.153Z,100216.13
2023-04-15T13:08:58.493Z,100215.00
2023-04-15T13:11:27.100Z,100224.56
2023-04-15T13:13:56.895Z,100220.13
2023-04-15T13:16:24.857Z,100226.13
2023-04-15T13:18:52.539Z,100230.81
2023-04-15T13:21:20.821Z,100232.44
2023-04-15T13:23:49.848Z,100228.00
2023-04-15T13:26:17.575Z,100234.59
2023-04-15T13:28:45.406Z,100229.13
2023-04-15T13:31:14.557Z,100230.22
2023-04-15T13:33:42.293Z,100229.06
2023-04-15T13:36:10.270Z,100235.91
2023-04-15T13:38:37.886Z,100242.56
2023-04-15T13:41:05.537Z,100245.06
2023-04-15T13:43:34.288Z,100251.88
2023-04-15T13:46:02.091Z,100245.56
2023-04-15T13:48:31.506Z,100256.28
2023-04-15T13:50:59.213Z,100257.13
2023-04-15T13:53:33.866Z,100250.00
2023-04-15T13:56:06.899Z,100257.69
2023-04-15T13:58:34.690Z,100257.97
2023-04-15T14:01:04.670Z,100265.34
2023-04-15T14:03:35.897Z,100266.16
2023-04-15T14:06:04.030Z,100276.59
2023-04-15T14:08:31.907Z,100273.31
2023-04-15T14:10:59.653Z,100274.72
2023-04-15T14:13:27.243Z,100271.22
2023-04-15T14:15:54.898Z,100269.56
2023-04-15T14:18:22.671Z,100275.59
2023-04-15T14:20:51.699Z,100277.22
2023-04-15T14:23:19.405Z,100282.69
2023-04-15T14:25:48.256Z,100288.19
2023-04-15T14:28:16.358Z,100288.47
2023-04-15T14:30:44.155Z,100296.16
2023-04-15T14:33:11.991Z,100299.72
2023-04-15T14:35:39.890Z,100306.84
2023-04-15T14:38:11.101Z,100306.31
2023-04-15T14:40:39.334Z,100312.31
2023-04-15T14:43:07.048Z,100313.13
2023-04-15T14:45:34.936Z,100313.69
2023-04-15T14:48:02.719Z,100317.03
2023-04-15T14:50:30.631Z,100320.34
2023-04-15T14:52:58.442Z,100319.22
2023-04-15T14:55:27.536Z,100321.16
2023-04-15T14:57:55.244Z,100320.06
2023-04-15T15:00:23.049Z,100321.66
2023-04-15T15:02:50.776Z,100327.41
2023-04-15T15:05:18.628Z,100328.25
2023-04-15T15:07:46.348Z,100329.63
2023-04-15T15:10:14.193Z,100333.72
2023-04-15T15:12:43.272Z,100334.53
2023-04-15T15:15:24.945Z,100338.09
2023-04-15T15:17:56.214Z,100341.09
2023-04-15T15:20:24.726Z,100341.09
2023-04-15T15:22:52.743Z,100338.34
2023-04-15T15:25:20.478Z,100344.63
2023-04-15T15:27:50.149Z,100354.81
2023-04-15T15:30:17.809Z,100357.53
2023-04-15T15:32:45.748Z,100354.22
2023-04-15T15:35:13.438Z,100355.84
2023-04-15T15:37:43.284Z,100357.19
2023-04-15T15:40:12.136Z,100354.97
2023-04-15T15:42:39.832Z,100359.13
2023-04-15T15:45:09.780Z,100357.19
2023-04-15T15:47:37.483Z,100361.56
2023-04-15T15:50:06.303Z,100359.66
2023-04-15T15:52:34.166Z,100361.88
2023-04-15T15:55:01.961Z,100374.16
2023-04-15T15:57:29.584Z,100370.91
2023-04-15T16:00:10.215Z,100372.00
2023-04-15T16:05:12.232Z,100380.22
2023-04-15T16:07:39.848Z,100386.00
2023-04-15T16:10:08.665Z,100381.59
2023-04-15T16:12:36.452Z,100380.53
2023-04-15T16:15:04.294Z,100387.91
2023-04-15T16:17:31.957Z,100390.13
2023-04-15T16:20:05.277Z,100393.97
2023-04-15T16:22:32.989Z,100387.91
2023-04-15T16:25:01.005Z,100392.06
2023-04-15T16:27:28.984Z,100396.44
2023-04-15T16:29:56.727Z,100405.22
2023-04-15T16:32:24.522Z,100397.56
2023-04-15T16:34:53.541Z,100398.66
2023-04-15T16:37:22.699Z,100401.09
2023-04-15T16:39:50.380Z,100395.91
2023-04-15T16:42:18.112Z,100413.44
2023-04-15T16:44:45.722Z,100404.69
2023-04-15T16:47:13.315Z,100414.00
2023-04-15T16:49:41.052Z,100411.31
2023-04-15T16:52:08.795Z,100415.16
2023-04-15T16:54:41.193Z,100417.91
2023-04-15T16:57:09.092Z,100411.31
2023-04-15T16:59:36.900Z,100425.84
2023-04-15T17:02:04.689Z,100420.38
2023-04-15T17:04:32.643Z,100429.38
2023-04-15T17:07:00.467Z,100434.34
2023-04-15T17:09:28.147Z,100432.69
2023-04-15T17:11:57.541Z,100431.91
2023-04-15T17:14:25.635Z,100434.63
2023-04-15T17:16:53.307Z,100433.81
2023-04-15T17:19:21.094Z,100444.22
2023-04-15T17:21:48.750Z,100446.13
2023-04-15T17:24:16.456Z,100453.25
2023-04-15T17:26:44.148Z,100457.94
2023-04-15T17:29:13.418Z,100458.19
2023-04-15T17:31:41.113Z,100459.03
2023-04-15T17:34:09.529Z,100464.78
2023-04-15T17:36:37.844Z,100468.06
2023-04-15T17:39:05.961Z,100469.72
2023-04-15T17:41:33.885Z,100473.56
2023-04-15T17:44:01.561Z,100473.03
2023-04-15T17:46:31.827Z,100473.34
2023-04-15T17:48:59.523Z,100478.00
2023-04-15T17:51:27.997Z,100473.59
2023-04-15T17:53:55.910Z,100474.41
2023-04-15T17:56:23.737Z,100489.22
2023-04-15T17:58:52.636Z,100489.50
2023-04-15T18:01:22.202Z,100497.19
2023-04-15T18:03:51.562Z,100499.94
2023-04-15T18:06:21.264Z,100504.56
2023-04-15T18:08:49.117Z,100507.63
2023-04-15T18:11:17.540Z,100513.38
2023-04-15T18:13:45.566Z,100510.34
2023-04-15T18:16:13.231Z,100515.28
2023-04-15T18:18:40.912Z,100531.16
2023-04-15T18:21:11.625Z,100528.13
2023-04-15T18:23:41.147Z,100529.25
2023-04-15T18:26:08.851Z,100527.06
2023-04-15T18:28:37.662Z,100531.97
2023-04-15T18:31:05.586Z,100535.00
2023-04-15T18:33:33.455Z,100542.41
2023-04-15T18:36:02.443Z,100547.63
2023-04-15T18:38:31.775Z,100546.78
2023-04-15T18:40:59.700Z,100548.72
2023-04-15T18:43:27.373Z,100547.59
2023-04-15T18:45:55.147Z,100561.31
2023-04-15T18:48:23.053Z,100555.28
2023-04-15T18:50:53.858Z,100558.03
2023-04-15T18:53:21.655Z,100562.69
2023-04-15T18:55:50.837Z,100566.81
2023-04-15T18:58:18.486Z,100567.66
2023-04-15T19:00:46.230Z,100569.28
2023-04-15T19:03:13.961Z,100577.19
2023-04-15T19:05:42.349Z,100571.47
2023-04-15T19:08:10.083Z,100574.47
2023-04-15T19:10:37.761Z,100575.03
2023-04-15T19:13:07.552Z,100578.06
2023-04-15T19:15:35.243Z,100577.22
2023-04-15T19:18:05.157Z,100587.38
2023-04-15T19:20:36.636Z,100581.91
2023-04-15T19:23:05.794Z,100582.69
2023-04-15T19:25:33.502Z,100593.41
2023-04-15T19:28:01.192Z,100592.00
2023-04-15T19:30:32.296Z,100598.59
2023-04-15T19:33:00.080Z,100595.59
2023-04-15T19:35:27.825Z,100606.78
2023-04-15T19:37:56.016Z,100602.16
2023-04-15T19:40:23.754Z,100601.88
2023-04-15T19:42:51.431Z,100611.19
2023-04-15T19:45:19.314Z,100612.28
2023-04-15T19:47:48.534Z,100606.53
2023-04-15T19:50:16.911Z,100619.44
2023-04-15T19:52:44.599Z,100613.41
2023-04-15T19:55:12.284Z,100622.97
2023-04-15T19:57:39.890Z,100617.22
2023-04-15T20:00:09.419Z,100618.31
2023-04-15T20:02:37.275Z,100624.06
2023-04-15T20:05:09.720Z,100626.00
2023-04-15T20:07:37.530Z,100622.19
2023-04-15T20:10:12.286Z,100622.72
2023-04-15T20:12:50.811Z,100621.34
2023-04-15T20:15:22.491Z,100624.06
2023-04-15T20:17:50.676Z,100627.09
2023-04-15T20:20:20.280Z,100631.19
2023-04-15T20:22:47.947Z,100621.34
2023-04-15T20:25:15.860Z,100627.91
2023-04-15T20:27:43.561Z,100630.66
2023-04-15T20:30:12.010Z,100631.22
2023-04-15T20:32:39.787Z,100632.56
2023-04-15T20:35:08.164Z,100635.59
2023-04-15T20:37:38.378Z,100638.34
2023-04-15T20:40:07.122Z,100634.22
2023-04-15T20:42:35.419Z,100638.88
2023-04-15T20:45:03.363Z,100637.25
2023-04-15T20:47:31.302Z,100641.63
2023-04-15T20:49:59.118Z,100640.53
2023-04-15T20:52:26.733Z,100639.13
2023-04-15T20:54:55.813Z,100643.53
2023-04-15T20:57:24.543Z,100640.25
2023-04-15T20:59:52.217Z,100643.28
2023-04-15T21:02:20.004Z,100648.44
2023-04-15T21:04:48.132Z,100655.03
2023-04-15T21:07:15.796Z,100648.44
2023-04-15T21:09:43.755Z,100647.66
2023-04-15T21:12:12.879Z,100657.75
2023-04-15T21:14:40.882Z,100656.41
2023-04-15T21:17:11.197Z,100666.53
2023-04-15T21:19:39.052Z,100667.38
2023-04-15T21:22:06.815Z,100678.03
2023-04-15T21:24:34.512Z,100672.56
2023-04-15T21:27:02.364Z,100678.56
2023-04-15T21:29:31.464Z,100684.06
2023-04-15T21:31:59.145Z,100685.44
2023-04-15T21:34:26.807Z,100685.16
2023-04-15T21:36:54.502Z,100686.25
2023-04-15T21:39:22.113Z,100691.19
2023-04-15T21:41:49.838Z,100692.81
2023-04-15T21:44:17.664Z,100693.66
2023-04-15T21:46:46.723Z,100692.81
2023-04-15T21:49:14.460Z,100699.13
2023-04-15T21:51:42.097Z,100704.06
2023-04-15T21:54:09.978Z,100702.13
2023-04-15T21:56:37.870Z,100703.22
2023-04-15T21:59:05.704Z,100698.00
2023-04-15T22:01:33.596Z,100708.97
2023-04-15T22:04:02.947Z,100708.16
2023-04-15T22:06:31.610Z,100707.91
2023-04-15T22:08:59.285Z,100713.63
2023-04-15T22:11:30.830Z,100710.06
2023-04-15T22:13:59.178Z,100711.69
2023-04-15T22:16:27.258Z,100717.19
2023-04-15T22:18:55.302Z,100712.78
2023-04-15T22:21:24.561Z,100718.28
2023-04-15T22:23:52.868Z,100720.47
2023-04-15T22:26:40.615Z,100726.50
2023-04-15T22:29:08.310Z,100730.63
2023-04-15T22:31:36.216Z,100723.75
2023-04-15T22:34:03.917Z,100732.81
2023-04-15T22:36:32.966Z,100731.97
2023-04-15T22:39:00.722Z,100736.34
2023-04-15T22:41:28.417Z,100740.19
2023-04-15T22:43:56.092Z,100747.28
2023-04-15T22:46:23.771Z,100750.31
2023-04-15T22:48:51.487Z,100748.69
2023-04-15T22:51:23.344Z,100756.59
2023-04-15T22:53:52.322Z,100755.25
2023-04-15T22:56:21.027Z,100759.34
2023-04-15T22:58:49.648Z,100755.81
2023-04-15T23:01:19.214Z,100752.78
2023-04-15T23:03:56.898Z,100764.56
2023-04-15T23:06:34.800Z,100764.81
2023-04-15T23:09:03.851Z,100764.28
2023-04-15T23:11:31.666Z,100765.66
2023-04-15T23:13:59.436Z,100767.31
2023-04-15T23:16:27.988Z,100766.47
2023-04-15T23:18:55.820Z,100767.00
2023-04-15T23:21:25.469Z,100771.69
2023-04-15T23:23:53.775Z,100769.75
2023-04-15T23:26:22.752Z,100768.41
2023-04-15T23:28:50.414Z,100779.06
2023-04-15T23:31:18.211Z,100780.69
2023-04-15T23:33:45.871Z,100784.53
2023-04-15T23:36:13.539Z,100779.91
2023-04-15T23:38:41.204Z,100790.84
2023-04-15T23:41:09.899Z,100788.63
2023-04-15T23:43:39.010Z,100792.19
2023-04-15T23:46:06.594Z,100792.44
2023-04-15T23:48:34.243Z,100788.91
2023-04-15T23:51:02.507Z,100791.63
2023-04-15T23:53:30.846Z,100785.06
2023-04-15T23:55:58.545Z,100789.16
2023-04-15T23:58:26.217Z,100786.16
